Time;durP1;ratioP1;P1;durP2;ratioP2;P2;SDS_P1;SDS_P2;PMS_P1;PMS_P2;Temp;Humidity;BMP_temperature;BMP_pressure;BME280_temperature;BME280_humidity;BME280_pressure;Samples;Min_cycle;Max_cycle;Signal;HPM_P1;HPM_P2
2021/09/06 00:02:19;;;;;;;8.00;3.97;;;9.50;99.90;;;;;;5012879;28;20021;-81
2021/09/06 00:04:44;;;;;;;8.52;3.50;;;9.40;99.90;;;;;;5012466;28;20441;-81
2021/09/06 00:07:10;;;;;;;7.55;3.63;;;9.40;99.90;;;;;;4994722;28;20532;-81
2021/09/06 00:09:36;;;;;;;6.93;3.55;;;9.40;99.90;;;;;;5012581;28;20037;-80
2021/09/06 00:12:01;;;;;;;6.00;4.10;;;9.40;99.90;;;;;;4994867;28;20116;-80
2021/09/06 00:14:27;;;;;;;6.70;3.50;;;9.40;99.90;;;;;;4994645;28;20025;-80
2021/09/06 00:16:53;;;;;;;6.15;3.50;;;9.30;99.90;;;;;;4994554;28;20029;-80
2021/09/06 00:19:21;;;;;;;8.40;3.88;;;9.30;99.90;;;;;;4994746;28;20133;-80
2021/09/06 00:21:46;;;;;;;8.30;3.65;;;9.20;99.90;;;;;;4994808;28;20112;-80
2021/09/06 00:24:12;;;;;;;9.35;3.85;;;9.20;99.90;;;;;;5010965;28;20112;-80
2021/09/06 00:26:38;;;;;;;7.93;4.15;;;9.20;99.90;;;;;;4994353;28;20104;-80
2021/09/06 00:29:04;;;;;;;7.95;3.50;;;9.20;99.90;;;;;;4994692;28;20037;-80
2021/09/06 00:31:29;;;;;;;10.07;3.75;;;9.10;99.90;;;;;;5012431;28;20030;-80
2021/09/06 00:33:55;;;;;;;9.60;4.50;;;9.10;99.90;;;;;;5010121;28;20030;-80
2021/09/06 00:36:20;;;;;;;6.95;3.95;;;9.10;99.90;;;;;;4994337;28;20037;-80
2021/09/06 00:38:46;;;;;;;9.23;4.38;;;9.10;99.90;;;;;;5010891;28;20033;-80
2021/09/06 00:41:12;;;;;;;10.57;4.68;;;9.10;99.90;;;;;;5012010;28;20068;-80
2021/09/06 00:43:39;;;;;;;6.88;4.32;;;9.10;99.90;;;;;;5010716;28;20026;-80
2021/09/06 00:46:05;;;;;;;7.32;4.53;;;9.10;99.90;;;;;;5010643;28;20407;-80
2021/09/06 00:48:31;;;;;;;8.27;4.25;;;9.10;99.90;;;;;;4994322;28;20032;-80
2021/09/06 00:50:56;;;;;;;8.77;4.28;;;9.10;99.90;;;;;;4994409;28;20030;-80
2021/09/06 00:53:22;;;;;;;6.95;4.18;;;9.10;99.90;;;;;;5012035;28;20037;-81
2021/09/06 00:55:50;;;;;;;8.13;4.25;;;9.10;99.90;;;;;;5011627;28;20022;-80
2021/09/06 00:58:16;;;;;;;9.30;4.80;;;9.10;99.90;;;;;;5011582;28;20029;-80
2021/09/06 01:00:41;;;;;;;5.20;3.83;;;9.00;99.90;;;;;;4994363;28;20224;-80
2021/09/06 01:03:07;;;;;;;6.45;4.07;;;9.00;99.90;;;;;;4994392;28;20555;-80
2021/09/06 01:05:33;;;;;;;5.47;3.55;;;9.00;99.90;;;;;;5011656;28;20076;-80
2021/09/06 01:07:58;;;;;;;8.95;4.07;;;9.00;99.90;;;;;;5011570;28;20039;-80
2021/09/06 01:10:24;;;;;;;5.57;3.90;;;9.00;99.90;;;;;;5010518;28;20056;-80
2021/09/06 01:12:50;;;;;;;6.10;4.55;;;8.90;99.90;;;;;;5011831;28;20483;-80
2021/09/06 01:15:16;;;;;;;6.43;4.03;;;8.90;99.90;;;;;;5011489;28;20108;-80
2021/09/06 01:17:42;;;;;;;8.20;5.15;;;8.80;99.90;;;;;;5011454;28;20026;-80
2021/09/06 01:20:10;;;;;;;10.10;6.22;;;8.70;99.90;;;;;;4994160;28;20068;-80
2021/09/06 01:22:36;;;;;;;9.27;6.28;;;8.70;99.90;;;;;;5010521;28;20108;-80
2021/09/06 01:25:03;;;;;;;13.27;6.28;;;8.70;99.90;;;;;;4993895;28;20049;-80
2021/09/06 01:27:29;;;;;;;9.80;5.20;;;8.70;99.90;;;;;;4993913;28;20113;-80
2021/09/06 01:29:55;;;;;;;10.68;5.93;;;8.60;99.90;;;;;;4993338;28;20538;-80
2021/09/06 01:32:21;;;;;;;12.80;6.22;;;8.60;99.90;;;;;;5011595;28;20021;-80
2021/09/06 01:34:47;;;;;;;7.97;4.63;;;8.60;99.90;;;;;;5010137;28;20521;-80
2021/09/06 01:37:13;;;;;;;7.70;4.70;;;8.60;99.90;;;;;;5011421;28;20048;-80
2021/09/06 01:39:38;;;;;;;9.65;4.97;;;8.60;99.90;;;;;;5011209;28;20124;-80
2021/09/06 01:42:04;;;;;;;8.55;5.43;;;8.70;99.90;;;;;;5011547;28;20053;-80
2021/09/06 01:44:29;;;;;;;7.13;5.10;;;8.70;99.90;;;;;;4995020;28;20018;-80
2021/09/06 01:46:55;;;;;;;8.85;5.45;;;8.70;99.90;;;;;;4997503;28;20072;-80
2021/09/06 01:49:21;;;;;;;9.07;5.47;;;8.70;99.90;;;;;;4997293;28;20038;-80
2021/09/06 01:51:46;;;;;;;9.05;4.53;;;8.70;99.90;;;;;;5013850;28;20520;-80
2021/09/06 01:54:12;;;;;;;6.10;4.38;;;8.60;99.90;;;;;;5014763;28;20379;-80
2021/09/06 01:56:38;;;;;;;6.65;3.92;;;8.60;99.90;;;;;;5014946;28;20026;-80
2021/09/06 01:59:04;;;;;;;5.70;4.07;;;8.60;99.90;;;;;;4996732;28;20486;-80
2021/09/06 02:01:29;;;;;;;4.63;3.58;;;8.60;99.90;;;;;;5014542;28;20030;-80
2021/09/06 02:03:55;;;;;;;6.60;3.75;;;8.60;99.90;;;;;;4997135;28;20494;-80
2021/09/06 02:06:20;;;;;;;5.70;3.47;;;8.70;99.90;;;;;;4997155;28;20036;-80
2021/09/06 02:08:46;;;;;;;8.10;4.35;;;8.70;99.90;;;;;;4997158;28;20479;-80
2021/09/06 02:11:12;;;;;;;5.18;3.20;;;8.60;99.90;;;;;;4996843;28;20038;-80
2021/09/06 02:13:38;;;;;;;3.88;3.03;;;8.60;99.90;;;;;;4997022;28;20022;-80
2021/09/06 02:16:04;;;;;;;5.20;3.40;;;8.60;99.90;;;;;;5014594;28;20026;-80
2021/09/06 02:18:29;;;;;;;5.07;3.63;;;8.60;99.90;;;;;;5014546;28;20072;-79
2021/09/06 02:20:55;;;;;;;5.03;3.55;;;8.50;99.90;;;;;;5014233;28;20025;-79
2021/09/06 02:23:20;;;;;;;4.13;3.20;;;8.50;99.90;;;;;;5014225;28;20033;-80
2021/09/06 02:25:46;;;;;;;4.65;3.78;;;8.50;99.90;;;;;;5014183;28;20527;-80
2021/09/06 02:28:12;;;;;;;6.20;4.43;;;8.50;99.90;;;;;;5014396;28;20052;-80
2021/09/06 02:30:38;;;;;;;5.03;4.13;;;8.50;99.90;;;;;;4996456;28;20030;-80
2021/09/06 02:33:03;;;;;;;4.00;3.55;;;8.50;99.90;;;;;;5014289;28;20034;-80
2021/09/06 02:35:29;;;;;;;3.22;2.88;;;8.50;99.90;;;;;;4996424;28;20033;-80
2021/09/06 02:37:55;;;;;;;4.97;3.20;;;8.50;99.90;;;;;;4996649;28;20121;-80
2021/09/06 02:40:20;;;;;;;4.85;3.00;;;8.50;99.90;;;;;;4996371;28;20026;-80
2021/09/06 02:42:46;;;;;;;5.90;4.10;;;8.50;99.90;;;;;;5014188;28;20022;-80
2021/09/06 02:45:12;;;;;;;4.15;3.30;;;8.50;99.90;;;;;;4996206;28;20032;-79
2021/09/06 02:47:38;;;;;;;3.70;2.33;;;8.50;99.90;;;;;;5014106;28;20389;-80
2021/09/06 02:50:04;;;;;;;3.45;2.88;;;8.50;99.90;;;;;;5014048;28;20022;-80
2021/09/06 02:52:31;;;;;;;3.35;2.38;;;8.40;99.90;;;;;;4996109;28;20053;-80
2021/09/06 02:54:57;;;;;;;3.38;2.67;;;8.40;99.90;;;;;;4996187;28;20125;-80
2021/09/06 02:57:22;;;;;;;2.83;2.28;;;8.30;99.90;;;;;;4995632;28;20116;-80
2021/09/06 02:59:48;;;;;;;2.40;2.20;;;8.30;99.90;;;;;;5012561;28;20018;-80
2021/09/06 03:02:13;;;;;;;4.57;3.03;;;8.30;99.90;;;;;;4995783;28;20402;-80
2021/09/06 03:04:39;;;;;;;3.60;2.67;;;8.20;99.90;;;;;;5012336;28;20022;-80
2021/09/06 03:07:05;;;;;;;5.13;3.17;;;8.20;99.90;;;;;;5012348;28;20022;-80
2021/09/06 03:09:30;;;;;;;4.28;3.13;;;8.30;99.90;;;;;;4996084;28;20041;-80
2021/09/06 03:11:56;;;;;;;4.75;3.17;;;8.30;99.90;;;;;;5013375;28;20069;-80
2021/09/06 03:14:22;;;;;;;3.25;2.90;;;8.30;99.90;;;;;;4995959;28;20037;-80
2021/09/06 03:16:47;;;;;;;8.48;2.85;;;8.30;99.90;;;;;;4995651;28;20030;-80
2021/09/06 03:19:13;;;;;;;3.45;3.03;;;8.30;99.90;;;;;;5013389;28;20030;-80
2021/09/06 03:21:38;;;;;;;3.55;2.85;;;8.30;99.90;;;;;;4995572;28;20076;-80
2021/09/06 03:24:04;;;;;;;3.70;3.30;;;8.30;99.90;;;;;;4995635;28;20539;-80
2021/09/06 03:26:30;;;;;;;4.45;3.15;;;8.40;99.90;;;;;;4995839;28;20104;-80
2021/09/06 03:28:55;;;;;;;4.10;3.58;;;8.40;99.90;;;;;;4995435;28;20036;-80
2021/09/06 03:31:21;;;;;;;4.53;3.47;;;8.40;99.90;;;;;;5013266;28;20034;-80
2021/09/06 03:33:46;;;;;;;4.78;3.83;;;8.40;99.90;;;;;;4995388;28;20030;-80
2021/09/06 03:36:12;;;;;;;4.93;3.80;;;8.30;99.90;;;;;;5012890;28;20038;-80
2021/09/06 03:38:37;;;;;;;6.28;4.30;;;8.30;99.90;;;;;;5012782;28;20026;-80
2021/09/06 03:41:03;;;;;;;6.13;4.10;;;8.30;99.90;;;;;;5013108;28;20030;-80
2021/09/06 03:43:29;;;;;;;5.15;3.90;;;8.30;99.90;;;;;;5012956;28;20036;-80
2021/09/06 03:45:54;;;;;;;5.43;4.20;;;8.30;99.90;;;;;;4995118;28;20026;-80
2021/09/06 03:48:20;;;;;;;6.07;4.18;;;8.30;99.90;;;;;;4995096;28;20053;-80
2021/09/06 03:50:45;;;;;;;10.60;5.20;;;8.20;99.90;;;;;;5011587;28;20029;-81
2021/09/06 03:53:12;;;;;;;7.40;5.00;;;8.20;99.90;;;;;;4995487;28;20030;-80
2021/09/06 03:55:38;;;;;;;5.72;4.65;;;8.20;99.90;;;;;;4994980;28;20021;-80
2021/09/06 03:58:04;;;;;;;5.30;3.97;;;8.20;99.90;;;;;;5012461;28;20445;-80
2021/09/06 04:00:29;;;;;;;6.13;4.20;;;8.20;99.90;;;;;;5012994;28;20026;-80
2021/09/06 04:02:55;;;;;;;5.18;3.97;;;8.10;99.90;;;;;;5012737;28;20026;-80
2021/09/06 04:05:21;;;;;;;4.82;3.92;;;8.10;99.90;;;;;;4994676;28;20026;-80
2021/09/06 04:07:46;;;;;;;6.43;4.95;;;8.10;99.90;;;;;;5011764;28;20072;-80
2021/09/06 04:10:12;;;;;;;7.32;4.68;;;8.10;99.90;;;;;;4994874;28;20483;-80
2021/09/06 04:12:38;;;;;;;7.90;5.30;;;8.10;99.90;;;;;;5012488;28;20030;-80
2021/09/06 04:15:05;;;;;;;6.82;4.88;;;8.10;99.90;;;;;;5012315;28;20464;-81
2021/09/06 04:17:31;;;;;;;7.25;4.95;;;8.10;99.90;;;;;;4994754;28;20025;-80
2021/09/06 04:19:56;;;;;;;7.40;5.03;;;8.10;99.90;;;;;;4994405;28;20073;-80
2021/09/06 04:22:22;;;;;;;5.00;4.47;;;8.10;99.90;;;;;;5012363;28;20438;-80
2021/09/06 04:24:47;;;;;;;6.97;3.55;;;8.10;99.90;;;;;;5012191;28;20030;-80
2021/09/06 04:27:13;;;;;;;4.78;3.97;;;8.10;99.90;;;;;;5012236;28;20025;-80
2021/09/06 04:29:38;;;;;;;5.47;4.15;;;8.00;99.90;;;;;;5012064;28;20565;-80
2021/09/06 04:32:05;;;;;;;4.22;3.70;;;8.00;99.90;;;;;;4994769;28;20037;-80
2021/09/06 04:34:31;;;;;;;5.88;4.40;;;7.90;99.90;;;;;;5010726;28;20113;-80
2021/09/06 04:36:57;;;;;;;4.20;3.72;;;7.90;99.90;;;;;;5012281;28;20451;-80
2021/09/06 04:39:23;;;;;;;3.40;3.10;;;7.90;99.90;;;;;;5011915;28;20034;-80
2021/09/06 04:41:49;;;;;;;4.28;3.80;;;7.90;99.90;;;;;;5012225;28;20069;-80
2021/09/06 04:44:16;;;;;;;3.80;3.50;;;7.90;99.90;;;;;;5011907;28;20029;-80
2021/09/06 04:46:42;;;;;;;4.35;3.65;;;8.00;99.90;;;;;;4994470;28;20036;-80
2021/09/06 04:49:08;;;;;;;5.22;4.45;;;8.00;99.90;;;;;;5012023;28;20105;-81
2021/09/06 04:51:33;;;;;;;5.22;4.47;;;8.00;99.90;;;;;;5011514;28;20037;-80
2021/09/06 04:53:59;;;;;;;4.45;3.97;;;8.10;99.90;;;;;;5011856;28;20036;-81
2021/09/06 04:56:24;;;;;;;5.50;4.57;;;8.00;99.90;;;;;;4994281;28;20080;-81
2021/09/06 04:58:50;;;;;;;4.90;4.40;;;8.10;99.90;;;;;;5010729;28;20116;-80
2021/09/06 05:01:17;;;;;;;8.65;3.95;;;8.10;99.90;;;;;;4994086;28;20450;-81
2021/09/06 05:03:42;;;;;;;5.15;4.45;;;8.10;99.90;;;;;;4994071;28;20029;-80
2021/09/06 05:06:08;;;;;;;5.95;4.47;;;8.10;99.90;;;;;;5011860;28;20021;-80
2021/09/06 05:08:33;;;;;;;5.22;4.30;;;8.10;99.90;;;;;;5011921;28;20030;-80
2021/09/06 05:10:59;;;;;;;6.68;5.10;;;8.20;99.90;;;;;;5011559;28;20057;-80
2021/09/06 05:13:25;;;;;;;6.13;5.13;;;8.20;99.90;;;;;;5011863;28;20030;-80
2021/09/06 05:15:51;;;;;;;6.50;5.57;;;8.30;99.90;;;;;;4993990;28;20036;-80
2021/09/06 05:18:16;;;;;;;10.70;5.88;;;8.40;99.90;;;;;;5011665;28;20029;-80
2021/09/06 05:20:42;;;;;;;9.70;6.20;;;8.40;99.90;;;;;;5014908;28;20030;-80
2021/09/06 05:23:08;;;;;;;12.77;6.97;;;8.50;99.90;;;;;;5014443;28;20072;-80
2021/09/06 05:25:34;;;;;;;11.48;7.60;;;8.60;99.90;;;;;;4997756;28;20060;-81
2021/09/06 05:28:00;;;;;;;14.52;8.70;;;8.70;99.90;;;;;;5015591;28;20034;-80
2021/09/06 05:30:25;;;;;;;15.88;8.23;;;8.80;99.90;;;;;;5015593;28;20048;-81
2021/09/06 05:32:51;;;;;;;15.07;7.80;;;8.90;99.90;;;;;;4997597;28;20026;-80
2021/09/06 05:35:16;;;;;;;13.20;7.68;;;9.00;99.90;;;;;;5015027;28;20029;-80
2021/09/06 05:37:42;;;;;;;15.00;8.50;;;9.00;99.90;;;;;;5015359;28;20042;-80
2021/09/06 05:40:08;;;;;;;10.13;7.35;;;9.10;99.90;;;;;;5014104;28;20026;-80
2021/09/06 05:42:34;;;;;;;8.90;6.43;;;9.20;99.90;;;;;;5015031;28;20053;-80
2021/09/06 05:44:59;;;;;;;6.10;4.93;;;9.30;99.90;;;;;;5015066;28;20049;-80
2021/09/06 05:47:25;;;;;;;10.73;5.60;;;9.30;99.90;;;;;;5015307;28;20113;-80
2021/09/06 05:49:51;;;;;;;6.65;5.65;;;9.30;99.90;;;;;;5015264;28;20101;-80
2021/09/06 05:52:16;;;;;;;6.38;4.90;;;9.40;99.90;;;;;;4997084;28;20044;-81
2021/09/06 05:54:42;;;;;;;13.13;5.75;;;9.50;99.90;;;;;;4997252;28;20034;-81
2021/09/06 05:57:07;;;;;;;7.25;4.95;;;9.50;99.90;;;;;;4997419;28;20052;-80
2021/09/06 05:59:33;;;;;;;5.57;4.90;;;9.60;99.90;;;;;;5014956;28;20470;-80
2021/09/06 06:01:59;;;;;;;10.63;5.55;;;9.60;99.90;;;;;;4993470;28;20050;-80
2021/09/06 06:04:24;;;;;;;10.60;5.70;;;9.60;99.90;;;;;;5013074;28;20364;-80
2021/09/06 06:06:50;;;;;;;21.27;5.53;;;9.70;99.90;;;;;;5014563;28;20080;-80
2021/09/06 06:09:15;;;;;;;15.00;5.88;;;9.80;99.90;;;;;;5014599;28;20497;-80
2021/09/06 06:11:41;;;;;;;14.15;6.35;;;9.90;99.90;;;;;;4997098;28;20033;-80
2021/09/06 06:14:10;;;;;;;7.35;5.47;;;10.00;99.90;;;;;;5013980;28;20391;-80
2021/09/06 06:16:36;;;;;;;9.75;6.00;;;10.10;99.90;;;;;;4996187;28;20061;-80
2021/09/06 06:19:02;;;;;;;8.60;5.07;;;10.30;99.90;;;;;;4996882;28;20057;-80
2021/09/06 06:21:29;;;;;;;8.25;5.95;;;10.50;99.90;;;;;;5014427;28;20026;-80
2021/09/06 06:23:55;;;;;;;6.53;5.53;;;10.70;99.90;;;;;;4996317;28;20064;-80
2021/09/06 06:26:22;;;;;;;7.70;5.43;;;11.00;99.90;;;;;;4996921;28;20022;-80
2021/09/06 06:28:48;;;;;;;5.30;4.80;;;11.20;99.90;;;;;;4996794;28;20045;-80
2021/09/06 06:31:14;;;;;;;9.70;5.40;;;11.40;99.90;;;;;;4995709;28;20496;-80
2021/09/06 06:33:39;;;;;;;8.52;5.85;;;11.50;99.90;;;;;;4996295;28;20030;-80
2021/09/06 06:36:05;;;;;;;9.95;7.25;;;11.70;99.90;;;;;;4996376;28;20037;-80
2021/09/06 06:38:33;;;;;;;8.85;7.15;;;11.80;99.90;;;;;;4996668;28;20033;-80
2021/09/06 06:41:00;;;;;;;6.70;5.43;;;12.00;99.90;;;;;;5013896;28;20034;-80
2021/09/06 06:43:25;;;;;;;6.60;4.93;;;12.10;99.90;;;;;;5013736;28;20026;-80
2021/09/06 06:45:51;;;;;;;7.40;5.97;;;12.20;99.90;;;;;;5013765;28;20411;-80
2021/09/06 06:48:17;;;;;;;10.20;5.88;;;12.30;99.90;;;;;;5012725;28;20048;-78
2021/09/06 06:50:43;;;;;;;8.75;6.90;;;12.50;99.90;;;;;;5014045;28;20079;-79
2021/09/06 06:53:08;;;;;;;10.15;6.15;;;12.70;99.90;;;;;;5013834;28;20029;-80
2021/09/06 06:55:34;;;;;;;10.43;6.20;;;12.90;99.90;;;;;;5013229;28;20037;-80
2021/09/06 06:57:59;;;;;;;11.40;9.60;;;13.20;99.90;;;;;;4996266;28;20084;-80
2021/09/06 07:00:25;;;;;;;10.60;7.60;;;13.40;99.90;;;;;;4996003;28;20022;-80
2021/09/06 07:02:51;;;;;;;7.32;5.47;;;13.50;99.90;;;;;;4996238;28;20033;-79
2021/09/06 07:05:17;;;;;;;14.35;5.65;;;13.60;99.90;;;;;;5012968;28;20048;-79
2021/09/06 07:07:42;;;;;;;11.05;5.40;;;13.80;99.90;;;;;;5013644;28;20022;-79
2021/09/06 07:10:09;;;;;;;10.60;5.60;;;13.90;99.90;;;;;;5012977;28;20487;-80
2021/09/06 07:12:34;;;;;;;10.55;5.75;;;14.10;99.90;;;;;;4995984;28;20018;-80
2021/09/06 07:15:00;;;;;;;7.90;5.00;;;14.30;99.90;;;;;;5012955;28;20037;-79
2021/09/06 07:17:26;;;;;;;10.82;6.78;;;14.50;99.90;;;;;;4999818;28;20499;-79
2021/09/06 07:19:51;;;;;;;8.13;5.97;;;14.50;99.90;;;;;;4999001;28;20030;-80
2021/09/06 07:22:17;;;;;;;6.88;4.68;;;14.60;99.90;;;;;;5008315;28;20044;-79
2021/09/06 07:24:42;;;;;;;8.73;6.45;;;14.60;99.90;;;;;;5008505;28;20026;-79
2021/09/06 07:27:08;;;;;;;6.45;5.80;;;14.70;99.90;;;;;;4995885;28;20033;-80
2021/09/06 07:29:34;;;;;;;5.93;5.32;;;14.80;99.90;;;;;;5008622;28;20022;-79
2021/09/06 07:32:03;;;;;;;11.07;7.18;;;14.70;99.90;;;;;;5002007;28;20057;-80
2021/09/06 07:34:32;;;;;;;7.20;5.40;;;14.90;99.90;;;;;;5008555;28;20026;-80
2021/09/06 07:36:58;;;;;;;7.80;6.25;;;15.10;99.90;;;;;;5000765;28;20041;-78
2021/09/06 07:39:23;;;;;;;7.25;4.93;;;15.40;99.90;;;;;;5008379;28;20034;-79
2021/09/06 07:41:49;;;;;;;11.75;6.43;;;15.70;99.90;;;;;;5007998;28;20037;-78
2021/09/06 07:44:14;;;;;;;11.70;6.43;;;15.90;99.90;;;;;;5003040;28;20022;-78
2021/09/06 07:46:40;;;;;;;7.28;5.43;;;16.00;99.90;;;;;;5012540;28;20030;-78
2021/09/06 07:49:05;;;;;;;5.70;4.18;;;16.10;99.90;;;;;;4995195;28;20026;-79
2021/09/06 07:51:31;;;;;;;9.40;7.10;;;16.30;99.90;;;;;;4995278;28;20137;-78
2021/09/06 07:53:57;;;;;;;13.40;4.95;;;16.50;99.90;;;;;;4994912;28;20029;-79
2021/09/06 07:56:22;;;;;;;6.40;5.47;;;16.80;99.90;;;;;;4994858;28;20037;-79
2021/09/06 07:58:48;;;;;;;8.73;5.50;;;17.10;99.90;;;;;;4994955;28;20501;-79
2021/09/06 08:01:13;;;;;;;5.18;4.20;;;17.30;99.90;;;;;;5011487;28;20018;-79
2021/09/06 08:03:39;;;;;;;6.70;5.40;;;17.60;99.90;;;;;;4995015;28;20041;-79
2021/09/06 08:06:04;;;;;;;9.85;4.05;;;18.10;99.90;;;;;;4994494;28;20398;-78
2021/09/06 08:08:30;;;;;;;6.70;4.93;;;18.40;99.90;;;;;;4995019;28;20030;-78
2021/09/06 08:10:55;;;;;;;9.35;4.95;;;18.60;99.90;;;;;;5012312;28;20399;-78
2021/09/06 08:13:21;;;;;;;6.25;3.83;;;18.80;99.90;;;;;;5012387;28;20089;-78
2021/09/06 08:15:47;;;;;;;5.63;3.58;;;19.20;99.90;;;;;;5012414;28;20026;-79
2021/09/06 08:18:12;;;;;;;7.53;3.75;;;19.50;99.90;;;;;;4994698;28;20542;-79
2021/09/06 08:20:39;;;;;;;7.00;3.55;;;19.60;99.90;;;;;;5012324;28;20044;-79
2021/09/06 08:23:05;;;;;;;5.93;4.10;;;19.60;99.90;;;;;;4994550;28;20037;-79
2021/09/06 08:25:30;;;;;;;5.28;3.80;;;19.50;99.90;;;;;;5011673;28;20395;-78
2021/09/06 08:27:56;;;;;;;6.68;4.45;;;19.40;99.90;;;;;;4994744;28;20022;-79
2021/09/06 08:30:22;;;;;;;7.05;5.07;;;19.20;99.90;;;;;;5012334;28;20936;-79
2021/09/06 08:32:48;;;;;;;10.40;6.47;;;19.30;99.90;;;;;;4994171;28;20034;-79
2021/09/06 08:35:14;;;;;;;12.80;7.00;;;19.30;99.90;;;;;;4994314;28;20189;-79
2021/09/06 08:37:40;;;;;;;14.00;7.05;;;19.30;99.90;;;;;;4994658;28;20116;-80
2021/09/06 08:40:08;;;;;;;9.65;7.07;;;19.40;99.90;;;;;;5011996;28;20026;-80
2021/09/06 08:42:33;;;;;;;13.15;8.88;;;19.30;99.90;;;;;;4987884;28;20034;-79
2021/09/06 08:44:59;;;;;;;12.52;7.32;;;19.20;99.90;;;;;;4993186;28;20072;-79
2021/09/06 08:47:25;;;;;;;16.42;7.75;;;19.10;99.90;;;;;;5007890;28;20022;-79
2021/09/06 08:49:51;;;;;;;18.48;8.73;;;19.10;99.90;;;;;;5011436;28;20026;-79
2021/09/06 08:52:17;;;;;;;11.55;7.35;;;18.90;99.90;;;;;;5005901;28;20042;-79
2021/09/06 08:54:43;;;;;;;16.42;9.48;;;18.90;99.90;;;;;;4999019;28;20076;-80
2021/09/06 08:57:09;;;;;;;19.23;10.43;;;19.00;99.90;;;;;;5003813;28;20034;-80
2021/09/06 08:59:34;;;;;;;16.17;10.43;;;19.00;99.90;;;;;;5011290;28;20478;-80
2021/09/06 09:02:00;;;;;;;18.20;11.23;;;19.00;99.90;;;;;;5002339;28;20058;-80
2021/09/06 09:06:59;;;;;;;16.88;9.68;;;19.30;99.90;;;;;;5035929;23;20150;-79
2021/09/06 09:09:26;;;;;;;25.17;12.52;;;19.60;99.90;;;;;;5034432;28;20040;-80
2021/09/06 09:12:09;;;;;;;23.35;12.13;;;20.00;99.90;;;;;;5032033;28;20393;-80
2021/09/06 09:14:38;;;;;;;18.65;10.52;;;20.20;99.90;;;;;;5031591;28;20088;-84
2021/09/06 09:17:04;;;;;;;18.92;9.85;;;20.30;99.90;;;;;;5028968;28;20061;-81
2021/09/06 09:19:30;;;;;;;19.15;9.30;;;20.50;99.90;;;;;;5029786;28;20036;-83
2021/09/06 09:21:58;;;;;;;18.75;11.77;;;20.60;99.90;;;;;;5030039;28;20413;-80
2021/09/06 09:24:24;;;;;;;21.58;10.77;;;20.80;99.90;;;;;;5030173;28;20111;-82
2021/09/06 09:26:56;;;;;;;16.73;11.32;;;20.70;99.90;;;;;;5028849;28;20097;-82
2021/09/06 09:29:22;;;;;;;21.63;10.82;;;20.70;99.90;;;;;;5027223;28;20368;-82
2021/09/06 09:31:52;;;;;;;19.20;11.35;;;20.70;99.90;;;;;;5012107;28;20092;-82
2021/09/06 09:34:18;;;;;;;17.02;9.55;;;20.70;99.90;;;;;;5011939;28;20029;-80
2021/09/06 09:36:43;;;;;;;18.20;12.50;;;20.50;99.90;;;;;;5028387;28;20087;-81
2021/09/06 09:39:12;;;;;;;21.15;11.80;;;20.40;99.90;;;;;;5027790;28;20040;-81
2021/09/06 09:41:39;;;;;;;17.85;10.25;;;20.40;99.90;;;;;;5031603;28;20071;-81
2021/09/06 09:44:10;;;;;;;27.27;15.15;;;20.20;99.90;;;;;;5026952;28;20025;-81
2021/09/06 09:46:36;;;;;;;20.80;13.70;;;20.10;99.90;;;;;;5026787;28;20084;-82
2021/09/06 09:49:13;;;;;;;23.48;15.18;;;20.30;99.90;;;;;;5026714;28;20105;-81
2021/09/06 09:51:38;;;;;;;24.85;15.20;;;20.40;99.90;;;;;;5027061;28;20087;-81
2021/09/06 09:54:06;;;;;;;23.67;13.77;;;20.60;99.90;;;;;;5026669;28;20033;-80
2021/09/06 09:56:32;;;;;;;24.38;16.33;;;20.90;99.90;;;;;;5022631;28;20502;-81
2021/09/06 09:58:59;;;;;;;29.85;16.00;;;21.10;99.90;;;;;;5040142;28;20125;-82
2021/09/06 10:01:27;;;;;;;26.67;15.50;;;21.30;99.90;;;;;;5015158;28;20028;-82
2021/09/06 10:03:57;;;;;;;23.92;14.57;;;21.50;99.90;;;;;;5026732;28;20025;-81
2021/09/06 10:06:24;;;;;;;25.50;14.02;;;21.60;99.90;;;;;;5027093;28;20033;-82
2021/09/06 10:08:49;;;;;;;22.20;13.02;;;21.50;99.90;;;;;;5029828;28;20025;-81
2021/09/06 10:11:15;;;;;;;23.52;12.77;;;22.10;99.90;;;;;;5040118;28;20505;-81
2021/09/06 10:13:42;;;;;;;24.25;14.27;;;22.60;99.90;;;;;;5035155;28;20029;-81
2021/09/06 10:16:08;;;;;;;23.90;15.13;;;22.70;99.90;;;;;;5038445;28;20030;-84
2021/09/06 10:18:39;;;;;;;23.05;14.57;;;22.40;99.90;;;;;;5030216;28;20041;-83
2021/09/06 10:21:37;;;;;;;23.52;14.93;;;22.00;99.90;;;;;;5030101;28;20029;-83
2021/09/06 10:24:12;;;;;;;27.92;18.08;;;22.00;99.90;;;;;;5036473;28;20393;-82
2021/09/06 10:26:38;;;;;;;31.23;17.10;;;21.80;99.90;;;;;;5028987;28;20497;-83
2021/09/06 10:29:18;;;;;;;27.02;16.73;;;21.80;99.90;;;;;;5029753;28;20044;-84
2021/09/06 10:31:44;;;;;;;25.90;15.80;;;21.70;99.90;;;;;;5035660;28;20022;-83
2021/09/06 10:34:21;;;;;;;30.05;15.73;;;21.50;99.90;;;;;;5029409;28;20021;-82
2021/09/06 10:36:58;;;;;;;29.05;16.73;;;21.40;99.90;;;;;;5014826;28;20025;-82
2021/09/06 10:39:24;;;;;;;27.73;17.80;;;21.60;99.90;;;;;;5025335;28;20485;-82
2021/09/06 10:41:51;;;;;;;29.75;17.67;;;21.50;99.90;;;;;;5030702;28;20033;-82
2021/09/06 10:44:20;;;;;;;30.55;18.80;;;21.50;99.90;;;;;;5029622;28;20021;-82
2021/09/06 10:46:58;;;;;;;32.33;18.33;;;21.50;99.90;;;;;;5031515;28;20022;-81
2021/09/06 10:49:27;;;;;;;28.23;17.13;;;21.10;99.90;;;;;;5042143;28;20032;-81
2021/09/06 10:51:55;;;;;;;31.33;17.13;;;20.80;99.90;;;;;;5029605;28;20478;-82
2021/09/06 10:54:21;;;;;;;31.35;16.52;;;20.90;99.90;;;;;;5028565;28;20033;-82
2021/09/06 10:56:46;;;;;;;29.45;18.13;;;20.90;99.90;;;;;;5025459;28;20044;-82
2021/09/06 10:59:12;;;;;;;32.03;17.92;;;20.90;99.90;;;;;;5028846;28;20029;-81
2021/09/06 11:01:38;;;;;;;26.83;16.15;;;21.20;99.90;;;;;;5029399;28;20021;-82
2021/09/06 11:04:04;;;;;;;25.88;14.68;;;21.90;99.90;;;;;;5029055;28;20104;-84
2021/09/06 11:06:29;;;;;;;26.58;15.43;;;21.90;99.90;;;;;;5040025;28;20401;-84
2021/09/06 11:08:56;;;;;;;25.98;16.40;;;22.30;99.90;;;;;;5028596;28;20040;-83
2021/09/06 11:11:28;;;;;;;24.20;15.25;;;22.20;99.90;;;;;;5029267;28;20025;-83
2021/09/06 11:13:54;;;;;;;30.52;16.58;;;22.30;99.90;;;;;;5028874;28;20029;-83
2021/09/06 11:16:19;;;;;;;29.33;17.20;;;22.20;99.90;;;;;;5038563;28;20556;-83
2021/09/06 11:18:50;;;;;;;26.95;17.23;;;22.00;99.90;;;;;;5023010;28;20048;-83
2021/09/06 11:21:20;;;;;;;35.67;16.65;;;21.50;99.90;;;;;;5033865;28;20057;-83
2021/09/06 11:23:47;;;;;;;25.80;14.80;;;21.40;99.90;;;;;;5028834;28;20025;-83
2021/09/06 11:26:29;;;;;;;30.23;17.27;;;21.60;99.90;;;;;;5028699;28;20105;-83
2021/09/06 11:28:56;;;;;;;33.08;17.38;;;21.90;99.90;;;;;;5028284;28;20036;-83
2021/09/06 11:31:22;;;;;;;33.28;19.52;;;22.00;99.90;;;;;;5028855;28;20509;-83
2021/09/06 11:34:22;;;;;;;30.83;19.15;;;22.00;99.90;;;;;;5038262;28;20057;-82
2021/09/06 11:36:47;;;;;;;27.45;16.13;;;22.10;99.90;;;;;;5009479;28;20038;-81
2021/09/06 11:39:13;;;;;;;24.10;14.25;;;22.00;99.90;;;;;;5028081;28;20052;-82
2021/09/06 11:41:39;;;;;;;22.60;13.35;;;22.00;99.90;;;;;;5028920;28;20061;-83
2021/09/06 11:44:06;;;;;;;28.10;15.13;;;21.70;99.90;;;;;;5028895;28;20052;-82
2021/09/06 11:46:33;;;;;;;29.63;16.30;;;21.70;99.90;;;;;;5028454;28;20014;-83
2021/09/06 11:49:01;;;;;;;31.05;16.25;;;21.50;99.90;;;;;;5029053;28;20125;-83
2021/09/06 11:51:27;;;;;;;23.00;12.23;;;21.40;99.90;;;;;;5030103;28;20026;-81
2021/09/06 11:54:01;;;;;;;32.05;15.80;;;21.00;99.90;;;;;;5028755;28;20040;-81
2021/09/06 11:56:27;;;;;;;19.67;13.60;;;20.90;99.90;;;;;;5039625;28;20044;-82
2021/09/06 11:58:57;;;;;;;28.80;14.93;;;21.00;99.90;;;;;;5028212;28;20490;-81
2021/09/06 12:01:23;;;;;;;25.95;14.50;;;20.80;99.90;;;;;;5028709;28;20064;-82
2021/09/06 12:03:49;;;;;;;25.50;14.27;;;20.80;99.90;;;;;;5028135;28;20032;-82
2021/09/06 12:06:17;;;;;;;25.55;14.10;;;20.80;99.90;;;;;;5028393;28;20030;-81
2021/09/06 12:08:59;;;;;;;27.55;13.50;;;20.60;99.90;;;;;;5030227;28;20033;-82
2021/09/06 12:11:39;;;;;;;20.67;14.15;;;20.50;99.90;;;;;;5025737;28;20029;-82
2021/09/06 12:14:07;;;;;;;25.52;14.32;;;20.60;99.90;;;;;;5027470;28;20458;-82
2021/09/06 12:16:34;;;;;;;21.90;12.45;;;20.70;99.90;;;;;;5036895;28;20064;-83
2021/09/06 12:19:02;;;;;;;24.40;14.23;;;20.70;99.90;;;;;;5027142;28;20045;-81
2021/09/06 12:21:28;;;;;;;20.85;13.63;;;20.70;99.90;;;;;;5027656;28;20040;-81
2021/09/06 12:24:03;;;;;;;25.50;13.13;;;20.80;99.90;;;;;;5027289;28;20029;-82
2021/09/06 12:26:44;;;;;;;24.30;12.52;;;20.80;99.90;;;;;;5034368;28;20038;-81
2021/09/06 12:29:10;;;;;;;33.45;16.05;;;21.00;99.90;;;;;;5026849;28;20053;-83
2021/09/06 12:31:44;;;;;;;26.15;14.65;;;21.20;99.90;;;;;;5033273;28;20444;-82
2021/09/06 12:34:11;;;;;;;24.52;14.13;;;21.20;99.90;;;;;;5038390;28;20030;-82
2021/09/06 12:36:36;;;;;;;35.13;15.25;;;21.50;99.90;;;;;;5033075;28;20029;-82
2021/09/06 12:39:03;;;;;;;31.50;15.70;;;21.70;99.90;;;;;;5014905;28;20512;-80
2021/09/06 12:41:29;;;;;;;25.58;13.73;;;22.00;99.90;;;;;;5026215;28;20044;-80
2021/09/06 12:43:55;;;;;;;23.95;13.52;;;22.00;99.90;;;;;;5027357;28;20029;-80
2021/09/06 12:46:21;;;;;;;19.70;12.18;;;22.10;99.90;;;;;;5035697;28;20018;-80